createdAt,value
2022-11-27T00:05:22.393Z,11.07
2022-11-27T00:08:10.480Z,10.07
2022-11-27T00:10:58.948Z,11.03
2022-11-27T00:13:48.012Z,11.33
2022-11-27T00:19:18.110Z,10.27
2022-11-27T00:22:07.567Z,10.67
2022-11-27T00:24:55.590Z,9.97
2022-11-27T00:27:44.070Z,9.73
2022-11-27T00:30:33.049Z,10.47
2022-11-27T00:33:21.530Z,10.73
2022-11-27T00:36:11.678Z,10.63
2022-11-27T00:39:00.260Z,8.83
2022-11-27T00:41:48.918Z,9.50
2022-11-27T00:44:38.379Z,9.30
2022-11-27T00:47:27.335Z,8.67
2022-11-27T00:50:15.960Z,8.23
2022-11-27T00:53:04.658Z,7.93
2022-11-27T00:58:38.616Z,8.70
2022-11-27T01:04:17.990Z,10.00
2022-11-27T01:09:53.253Z,9.20
2022-11-27T01:15:38.684Z,9.43
2022-11-27T01:18:28.987Z,8.30
2022-11-27T01:21:19.919Z,7.53
2022-11-27T01:24:11.253Z,8.23
2022-11-27T01:29:41.340Z,9.00
2022-11-27T01:35:19.364Z,9.23
2022-11-27T01:38:08.331Z,9.67
2022-11-27T01:43:47.814Z,10.17
2022-11-27T01:52:18.296Z,12.83
2022-11-27T01:58:00.473Z,12.20
2022-11-27T02:03:35.011Z,12.57
2022-11-27T02:09:04.018Z,12.43
2022-11-27T02:14:38.063Z,14.23
2022-11-27T02:20:36.051Z,13.57
2022-11-27T02:29:51.836Z,13.27
2022-11-27T02:35:32.836Z,14.43
2022-11-27T02:41:29.481Z,13.90
2022-11-27T02:47:04.954Z,12.60
2022-11-27T02:49:56.204Z,13.50
2022-11-27T02:55:27.643Z,13.77
2022-11-27T03:03:53.094Z,15.67
2022-11-27T03:09:32.296Z,13.87
2022-11-27T03:15:02.033Z,15.90
2022-11-27T03:20:41.831Z,15.47
2022-11-27T03:23:31.387Z,15.10
2022-11-27T03:26:23.309Z,14.77
2022-11-27T03:32:01.025Z,15.03
2022-11-27T03:34:49.930Z,14.33
2022-11-27T03:37:38.674Z,14.50
2022-11-27T03:43:22.756Z,14.07
2022-11-27T03:49:02.371Z,13.87
2022-11-27T03:54:39.926Z,12.50
2022-11-27T04:00:14.426Z,13.20
2022-11-27T04:05:51.341Z,14.03
2022-11-27T04:11:21.585Z,14.77
2022-11-27T04:14:13.950Z,14.17
2022-11-27T04:17:04.340Z,15.30
2022-11-27T04:22:51.586Z,15.50
2022-11-27T04:28:19.245Z,15.73
2022-11-27T04:33:57.018Z,16.20
2022-11-27T04:36:46.267Z,15.03
2022-11-27T04:42:16.043Z,15.77
2022-11-27T04:45:05.624Z,17.00
2022-11-27T04:50:39.588Z,15.73
2022-11-27T04:56:16.481Z,15.60
2022-11-27T04:59:04.811Z,15.53
2022-11-27T05:04:45.177Z,17.07
2022-11-27T05:10:21.497Z,18.47
2022-11-27T05:18:43.384Z,15.93
2022-11-27T05:24:14.736Z,15.23
2022-11-27T05:29:50.285Z,15.17
2022-11-27T05:35:26.893Z,16.10
2022-11-27T05:38:15.771Z,14.80
2022-11-27T05:44:07.029Z,14.37
2022-11-27T05:46:57.258Z,15.17
2022-11-27T05:52:26.701Z,16.27
2022-11-27T05:55:15.325Z,15.67
2022-11-27T05:58:04.125Z,16.07
2022-11-27T06:03:39.036Z,16.80
2022-11-27T06:09:17.008Z,15.40
2022-11-27T06:14:46.183Z,16.20
2022-11-27T06:17:34.772Z,15.40
2022-11-27T06:20:23.828Z,15.33
2022-11-27T06:25:59.645Z,16.13
2022-11-27T06:28:48.760Z,15.83
2022-11-27T06:34:39.370Z,16.37
2022-11-27T06:37:27.795Z,16.67
2022-11-27T06:43:04.136Z,18.00
2022-11-27T06:48:46.066Z,16.67
2022-11-27T06:51:35.236Z,17.77
2022-11-27T06:57:12.542Z,16.93
2022-11-27T07:02:52.894Z,17.53
2022-11-27T07:05:41.052Z,17.37
2022-11-27T07:11:21.794Z,17.27
2022-11-27T07:14:11.288Z,18.77
2022-11-27T07:17:00.471Z,18.33
2022-11-27T07:19:49.701Z,18.33
2022-11-27T07:25:25.600Z,16.23
2022-11-27T07:28:18.691Z,15.80
2022-11-27T07:33:52.348Z,16.70
2022-11-27T07:39:46.209Z,16.80
2022-11-27T07:44:59.685Z,16.30
2022-11-27T07:47:50.288Z,16.07
2022-11-27T07:53:19.490Z,16.10
2022-11-27T07:56:09.211Z,15.93
2022-11-27T08:01:44.764Z,15.67
2022-11-27T08:07:15.090Z,15.40
2022-11-27T08:12:54.838Z,12.77
2022-11-27T08:15:43.272Z,12.90
2022-11-27T08:21:18.281Z,12.67
2022-11-27T08:24:08.164Z,13.20
2022-11-27T08:29:44.646Z,13.07
2022-11-27T08:35:24.747Z,12.90
2022-11-27T08:38:26.846Z,12.13
2022-11-27T08:44:04.497Z,13.53
2022-11-27T08:46:52.059Z,12.30
2022-11-27T08:49:46.176Z,13.20
2022-11-27T08:52:34.635Z,13.97
2022-11-27T08:58:04.535Z,11.80
2022-11-27T09:03:36.936Z,13.13
2022-11-27T09:09:13.202Z,13.83
2022-11-27T09:12:02.187Z,12.87
2022-11-27T09:17:38.142Z,12.43
2022-11-27T09:20:27.374Z,12.47
2022-11-27T09:26:05.437Z,13.57
2022-11-27T09:28:54.542Z,11.87
2022-11-27T09:34:36.046Z,12.13
2022-11-27T09:40:08.303Z,11.13
2022-11-27T09:45:45.818Z,11.37
2022-11-27T09:51:22.346Z,11.03
2022-11-27T09:54:16.292Z,10.37
2022-11-27T09:57:05.472Z,9.80
2022-11-27T10:02:44.907Z,10.00
2022-11-27T10:08:31.533Z,9.83
2022-11-27T10:11:27.024Z,8.93
2022-11-27T10:17:08.387Z,9.80
2022-11-27T10:19:59.837Z,9.03
2022-11-27T10:22:53.174Z,8.97
2022-11-27T10:25:44.121Z,8.67
2022-11-27T10:31:23.599Z,8.57
2022-11-27T10:36:56.162Z,7.03
2022-11-27T10:39:47.384Z,8.20
2022-11-27T10:45:24.266Z,7.60
2022-11-27T10:48:16.014Z,7.37
2022-11-27T10:54:01.647Z,6.90
2022-11-27T11:02:39.745Z,6.37
2022-11-27T11:05:45.513Z,6.30
2022-11-27T11:11:08.066Z,7.30
2022-11-27T11:32:43.228Z,6.70
2022-11-27T11:38:19.778Z,5.87
2022-11-27T11:41:09.521Z,6.40
2022-11-27T11:46:49.542Z,6.10
2022-11-27T11:52:51.761Z,6.13
2022-11-27T11:58:35.485Z,5.57
2022-11-27T12:04:36.370Z,6.07
2022-11-27T12:10:07.399Z,5.47
2022-11-27T12:15:53.186Z,5.73
2022-11-27T12:21:38.998Z,5.37
2022-11-27T12:27:22.314Z,4.60
2022-11-27T12:30:18.294Z,4.80
2022-11-27T12:33:21.331Z,4.43
2022-11-27T12:36:16.180Z,4.00
2022-11-27T12:42:27.988Z,3.90
2022-11-27T12:50:56.964Z,4.30
2022-11-27T12:53:50.346Z,3.97
2022-11-27T12:59:32.597Z,4.20
2022-11-27T13:02:37.397Z,4.07
2022-11-27T13:05:28.039Z,3.93
2022-11-27T13:11:13.818Z,3.53
2022-11-27T13:17:50.773Z,2.77
2022-11-27T13:20:43.281Z,2.10
2022-11-27T13:29:47.712Z,1.47
2022-11-27T13:35:30.841Z,1.67
2022-11-27T13:38:28.547Z,1.50
2022-11-27T13:41:24.386Z,1.40
2022-11-27T13:47:10.766Z,4.27
2022-11-27T13:50:04.023Z,5.77
2022-11-27T13:55:43.834Z,4.97
2022-11-27T14:04:11.544Z,4.30
2022-11-27T14:09:47.366Z,6.07
2022-11-27T14:12:38.398Z,5.90
2022-11-27T14:21:08.834Z,5.20
2022-11-27T14:24:04.556Z,4.40
2022-11-27T14:29:43.374Z,3.13
2022-11-27T14:35:29.245Z,1.70
2022-11-27T14:41:15.652Z,5.70
2022-11-27T14:44:05.188Z,5.50
2022-11-27T14:49:47.282Z,6.10
2022-11-27T14:52:38.956Z,5.73
2022-11-27T15:01:22.722Z,4.83
2022-11-27T15:07:20.361Z,4.57
2022-11-27T15:12:58.803Z,3.80
2022-11-27T15:18:35.924Z,4.33
2022-11-27T15:21:26.399Z,4.13
2022-11-27T15:27:20.889Z,5.47
2022-11-27T15:32:59.162Z,5.20
2022-11-27T15:38:39.817Z,4.70
2022-11-27T15:44:12.295Z,4.40
2022-11-27T15:49:41.872Z,5.10
2022-11-27T15:52:34.557Z,4.80
2022-11-27T15:58:13.053Z,4.77
2022-11-27T16:05:03.164Z,4.60
2022-11-27T16:10:40.029Z,4.30
2022-11-27T16:13:37.863Z,4.20
2022-11-27T16:16:29.917Z,3.97
2022-11-27T16:19:19.795Z,3.97
2022-11-27T16:28:42.270Z,5.60
2022-11-27T16:34:12.514Z,4.33
2022-11-27T16:42:30.731Z,4.53
2022-11-27T16:48:08.114Z,4.97
2022-11-27T16:54:05.604Z,7.20
2022-11-27T16:59:43.648Z,6.03
2022-11-27T17:02:31.599Z,6.50
2022-11-27T17:05:20.234Z,8.10
2022-11-27T17:08:08.852Z,8.37
2022-11-27T17:10:57.137Z,8.27
2022-11-27T17:13:45.912Z,8.30
2022-11-27T17:16:35.030Z,9.13
2022-11-27T17:19:31.198Z,9.37
2022-11-27T17:22:20.967Z,8.90
2022-11-27T17:25:13.413Z,9.33
2022-11-27T17:30:50.048Z,7.27
2022-11-27T17:36:25.177Z,7.23
2022-11-27T17:44:41.025Z,6.93
2022-11-27T17:50:36.154Z,7.63
2022-11-27T17:53:27.566Z,7.57
2022-11-27T17:59:05.888Z,7.43
2022-11-27T18:04:48.544Z,7.90
2022-11-27T18:10:20.380Z,7.50
2022-11-27T18:18:49.756Z,8.73
2022-11-27T18:21:38.951Z,9.50
2022-11-27T18:24:27.502Z,9.03
2022-11-27T18:27:17.396Z,7.03
2022-11-27T18:30:07.869Z,7.83
2022-11-27T18:32:56.285Z,8.07
2022-11-27T18:35:44.374Z,7.13
2022-11-27T18:41:33.233Z,8.00
2022-11-27T18:47:10.141Z,7.80
2022-11-27T18:52:44.266Z,8.37
2022-11-27T18:55:35.738Z,8.37
2022-11-27T19:03:45.741Z,10.30
2022-11-27T19:09:25.594Z,10.00
2022-11-27T19:15:09.251Z,8.77
2022-11-27T19:17:57.357Z,8.00
2022-11-27T19:20:47.924Z,9.70
2022-11-27T19:23:49.230Z,9.77
2022-11-27T19:29:46.800Z,9.90
2022-11-27T19:32:37.303Z,9.10
2022-11-27T19:35:26.871Z,9.60
2022-11-27T19:38:14.964Z,9.00
2022-11-27T19:41:04.158Z,8.97
2022-11-27T19:46:48.512Z,8.20
2022-11-27T19:49:36.821Z,8.57
2022-11-27T19:55:10.694Z,9.57
2022-11-27T20:00:43.725Z,9.53
2022-11-27T20:06:20.722Z,9.87
2022-11-27T20:11:56.913Z,9.73
2022-11-27T20:20:23.800Z,9.17
2022-11-27T20:23:15.811Z,9.50
2022-11-27T20:28:55.310Z,9.57
2022-11-27T20:34:33.252Z,9.00
2022-11-27T20:37:21.551Z,9.77
2022-11-27T20:40:12.227Z,10.23
2022-11-27T20:45:43.522Z,8.87
2022-11-27T20:51:21.384Z,8.90
2022-11-27T20:57:11.423Z,8.87
2022-11-27T21:02:45.191Z,8.10
2022-11-27T21:08:24.857Z,8.17
2022-11-27T21:11:16.847Z,8.57
2022-11-27T21:16:55.734Z,8.13
2022-11-27T21:22:31.995Z,8.60
2022-11-27T21:28:08.828Z,9.63
2022-11-27T21:33:49.575Z,9.23
2022-11-27T21:36:48.136Z,9.30
2022-11-27T21:39:36.802Z,9.37
2022-11-27T21:42:27.756Z,8.00
2022-11-27T21:47:57.746Z,8.60
2022-11-27T21:53:24.233Z,9.23
2022-11-27T21:56:14.244Z,9.13
2022-11-27T22:04:31.678Z,8.00
2022-11-27T22:10:16.751Z,8.70
2022-11-27T22:18:33.391Z,9.50
2022-11-27T22:24:16.519Z,9.17
2022-11-27T22:29:47.013Z,9.23
2022-11-27T22:38:04.816Z,9.03
2022-11-27T22:40:59.382Z,8.57
2022-11-27T22:43:48.856Z,8.13
2022-11-27T22:46:39.395Z,8.97
2022-11-27T22:54:59.547Z,8.13
2022-11-27T23:00:39.008Z,7.57
2022-11-27T23:06:17.338Z,7.60
2022-11-27T23:11:53.830Z,8.67
2022-11-27T23:17:22.529Z,9.07
2022-11-27T23:20:12.672Z,9.50
2022-11-27T23:23:01.664Z,9.03
2022-11-27T23:28:37.656Z,9.07
2022-11-27T23:31:31.664Z,8.80
2022-11-27T23:34:17.671Z,9.17
2022-11-27T23:39:52.691Z,10.10
2022-11-27T23:45:23.009Z,9.30
2022-11-27T23:51:00.353Z,9.33
2022-11-27T23:56:30.438Z,9.97
2022-11-27T23:59:18.833Z,10.83
